ES5RHN Weather Reports


Display with metric or nautical units.
time (UTC)temp
F
wind
direction
speed
MPH
gust
MPH
rain 1hr
in
rain 24hr
in
rain mn
in
humidity
%
barometer
mb
20210921091523 43 360 4.0 11.0 0.00 0.05 0.00 87 1018.4
20210920160137 43 45 4.0 12.0 0.00 0.04 0.04 87 1020.7
20210920154602 43 65 6.0 19.0 0.00 0.04 0.04 86 1020.7
20210920153152 43 26 5.0 11.0 0.00 0.04 0.04 86 1020.7
20210920151638 43 63 4.0 10.0 0.00 0.04 0.04 87 1020.7
20210920150123 43 337 3.0 9.0 0.01 0.04 0.04 87 1020.5
20210920144618 43 44 2.0 8.0 0.01 0.04 0.04 86 1020.4
20210920143044 43 38 4.0 10.0 0.02 0.04 0.04 85 1020.4
20210920141739 43 30 5.0 11.0 0.02 0.04 0.04 84 1020.2
20210920140322 43 52 5.0 14.0 0.02 0.03 0.03 84 1020.3
20210920134637 43 355 7.0 13.0 0.02 0.03 0.03 84 1020.1
20210920133121 43 20 6.0 18.0 0.02 0.02 0.02 83 1020.2
20210920131629 44 14 8.0 15.0 0.02 0.02 0.02 84 1020.2
20210920130006 44 71 7.0 14.0 0.02 0.02 0.02 84 1020.2
20210920124505 44 53 5.0 13.0 0.01 0.01 0.01 83 1020.2
20210920123028 45 44 7.0 15.0 0.01 0.01 0.01 81 1020.3
20210920121543 45 30 5.0 16.0 0.00 0.00 0.00 78 1020.0
20210920120006 46 65 8.0 19.0 0.00 0.00 0.00 74 1020.2
20210920114505 46 49 8.0 17.0 0.00 0.00 0.00 71 1020.3
20210920113015 46 79 8.0 16.0 0.00 0.00 0.00 72 1020.4
20210920111509 46 355 11.0 20.0 0.00 0.00 0.00 73 1020.5
20210920110000 46 25 6.0 15.0 0.00 0.00 0.00 73 1020.6
20210920104515 46 39 10.0 20.0 0.00 0.00 0.00 74 1020.6
20210920093123 45 26 10.0 19.0 0.00 0.00 0.00 76 1020.6